sensor_id;sensor_type;location;lat;lon;timestamp;P1;durP1;ratioP1;P2;durP2;ratioP2
64851;SDS011;56050;55.558;-4.644;2023-02-03T00:01:40;6.60;;;1.50;;
64851;SDS011;56050;55.558;-4.644;2023-02-03T00:04:05;7.55;;;1.48;;
64851;SDS011;56050;55.558;-4.644;2023-02-03T00:06:31;6.35;;;2.75;;
64851;SDS011;56050;55.558;-4.644;2023-02-03T00:08:57;4.28;;;1.38;;
64851;SDS011;56050;55.558;-4.644;2023-02-03T00:11:24;9.18;;;1.45;;
64851;SDS011;56050;55.558;-4.644;2023-02-03T00:13:50;4.05;;;0.93;;
64851;SDS011;56050;55.558;-4.644;2023-02-03T00:16:16;6.78;;;2.67;;
64851;SDS011;56050;55.558;-4.644;2023-02-03T00:18:41;8.23;;;1.48;;
64851;SDS011;56050;55.558;-4.644;2023-02-03T00:21:07;3.80;;;0.77;;
64851;SDS011;56050;55.558;-4.644;2023-02-03T00:23:32;6.88;;;2.42;;
64851;SDS011;56050;55.558;-4.644;2023-02-03T00:28:53;4.65;;;1.17;;
64851;SDS011;56050;55.558;-4.644;2023-02-03T00:31:20;5.70;;;1.75;;
64851;SDS011;56050;55.558;-4.644;2023-02-03T00:33:52;4.93;;;0.98;;
64851;SDS011;56050;55.558;-4.644;2023-02-03T00:36:19;4.25;;;1.75;;
64851;SDS011;56050;55.558;-4.644;2023-02-03T00:38:46;7.10;;;2.85;;
64851;SDS011;56050;55.558;-4.644;2023-02-03T00:41:13;9.88;;;1.25;;
64851;SDS011;56050;55.558;-4.644;2023-02-03T00:43:38;11.02;;;2.95;;
64851;SDS011;56050;55.558;-4.644;2023-02-03T00:46:03;8.55;;;1.45;;
64851;SDS011;56050;55.558;-4.644;2023-02-03T00:48:29;8.32;;;1.83;;
64851;SDS011;56050;55.558;-4.644;2023-02-03T00:50:55;8.50;;;3.17;;
64851;SDS011;56050;55.558;-4.644;2023-02-03T00:53:20;10.52;;;1.92;;
64851;SDS011;56050;55.558;-4.644;2023-02-03T00:55:45;16.42;;;2.30;;
64851;SDS011;56050;55.558;-4.644;2023-02-03T00:58:11;17.48;;;2.03;;
64851;SDS011;56050;55.558;-4.644;2023-02-03T01:00:37;14.82;;;2.10;;
64851;SDS011;56050;55.558;-4.644;2023-02-03T01:03:02;24.73;;;2.65;;
64851;SDS011;56050;55.558;-4.644;2023-02-03T01:05:28;21.70;;;2.80;;
64851;SDS011;56050;55.558;-4.644;2023-02-03T01:07:53;17.83;;;2.78;;
64851;SDS011;56050;55.558;-4.644;2023-02-03T01:10:19;22.15;;;3.08;;
64851;SDS011;56050;55.558;-4.644;2023-02-03T01:12:44;17.52;;;3.22;;
64851;SDS011;56050;55.558;-4.644;2023-02-03T01:15:10;14.85;;;1.92;;
64851;SDS011;56050;55.558;-4.644;2023-02-03T01:17:35;16.33;;;2.60;;
64851;SDS011;56050;55.558;-4.644;2023-02-03T01:20:00;24.65;;;2.90;;
64851;SDS011;56050;55.558;-4.644;2023-02-03T01:22:28;10.65;;;2.85;;
64851;SDS011;56050;55.558;-4.644;2023-02-03T01:24:54;17.58;;;2.38;;
64851;SDS011;56050;55.558;-4.644;2023-02-03T01:27:20;13.52;;;3.72;;
64851;SDS011;56050;55.558;-4.644;2023-02-03T01:29:45;20.65;;;2.72;;
64851;SDS011;56050;55.558;-4.644;2023-02-03T01:32:11;22.15;;;4.80;;
64851;SDS011;56050;55.558;-4.644;2023-02-03T01:34:36;27.80;;;4.63;;
64851;SDS011;56050;55.558;-4.644;2023-02-03T01:37:02;33.78;;;4.68;;
64851;SDS011;56050;55.558;-4.644;2023-02-03T01:39:27;26.30;;;5.43;;
64851;SDS011;56050;55.558;-4.644;2023-02-03T01:41:53;36.33;;;5.85;;
64851;SDS011;56050;55.558;-4.644;2023-02-03T01:47:16;32.10;;;7.97;;
64851;SDS011;56050;55.558;-4.644;2023-02-03T01:49:57;32.90;;;6.50;;
64851;SDS011;56050;55.558;-4.644;2023-02-03T01:53:05;33.03;;;5.38;;
64851;SDS011;56050;55.558;-4.644;2023-02-03T01:55:38;37.00;;;6.47;;
64851;SDS011;56050;55.558;-4.644;2023-02-03T01:58:14;30.90;;;6.05;;
64851;SDS011;56050;55.558;-4.644;2023-02-03T02:00:45;32.63;;;6.30;;
64851;SDS011;56050;55.558;-4.644;2023-02-03T02:03:11;29.73;;;4.40;;
64851;SDS011;56050;55.558;-4.644;2023-02-03T02:05:38;24.90;;;5.75;;
64851;SDS011;56050;55.558;-4.644;2023-02-03T02:08:10;26.30;;;4.30;;
64851;SDS011;56050;55.558;-4.644;2023-02-03T02:10:37;31.15;;;4.82;;
64851;SDS011;56050;55.558;-4.644;2023-02-03T02:13:03;29.42;;;5.53;;
64851;SDS011;56050;55.558;-4.644;2023-02-03T02:15:36;28.90;;;6.88;;
64851;SDS011;56050;55.558;-4.644;2023-02-03T02:26:48;22.02;;;3.38;;
64851;SDS011;56050;55.558;-4.644;2023-02-03T02:38:48;21.77;;;3.85;;
64851;SDS011;56050;55.558;-4.644;2023-02-03T02:43:53;28.53;;;4.37;;
64851;SDS011;56050;55.558;-4.644;2023-02-03T02:47:00;21.23;;;2.92;;
64851;SDS011;56050;55.558;-4.644;2023-02-03T02:49:25;28.25;;;4.18;;
64851;SDS011;56050;55.558;-4.644;2023-02-03T02:51:59;21.83;;;4.13;;
64851;SDS011;56050;55.558;-4.644;2023-02-03T02:54:29;36.88;;;4.45;;
64851;SDS011;56050;55.558;-4.644;2023-02-03T02:56:58;26.77;;;3.53;;
64851;SDS011;56050;55.558;-4.644;2023-02-03T02:59:25;29.45;;;3.90;;
64851;SDS011;56050;55.558;-4.644;2023-02-03T03:01:51;22.95;;;3.40;;
64851;SDS011;56050;55.558;-4.644;2023-02-03T03:04:17;26.75;;;5.38;;
64851;SDS011;56050;55.558;-4.644;2023-02-03T03:06:51;26.42;;;2.80;;
64851;SDS011;56050;55.558;-4.644;2023-02-03T03:09:24;27.98;;;3.80;;
64851;SDS011;56050;55.558;-4.644;2023-02-03T03:12:01;19.02;;;2.63;;
64851;SDS011;56050;55.558;-4.644;2023-02-03T03:14:34;17.95;;;3.92;;
64851;SDS011;56050;55.558;-4.644;2023-02-03T03:17:03;24.10;;;3.85;;
64851;SDS011;56050;55.558;-4.644;2023-02-03T03:19:33;26.55;;;4.60;;
64851;SDS011;56050;55.558;-4.644;2023-02-03T03:22:03;25.90;;;4.75;;
64851;SDS011;56050;55.558;-4.644;2023-02-03T03:24:36;17.48;;;3.38;;
64851;SDS011;56050;55.558;-4.644;2023-02-03T03:27:22;16.50;;;3.45;;
64851;SDS011;56050;55.558;-4.644;2023-02-03T03:29:51;22.60;;;4.32;;
64851;SDS011;56050;55.558;-4.644;2023-02-03T03:32:21;23.10;;;3.60;;
64851;SDS011;56050;55.558;-4.644;2023-02-03T03:34:47;22.20;;;3.45;;
64851;SDS011;56050;55.558;-4.644;2023-02-03T03:37:22;17.92;;;2.25;;
64851;SDS011;56050;55.558;-4.644;2023-02-03T03:40:16;15.10;;;3.45;;
64851;SDS011;56050;55.558;-4.644;2023-02-03T03:42:49;15.25;;;3.03;;
64851;SDS011;56050;55.558;-4.644;2023-02-03T03:47:58;15.18;;;2.80;;
64851;SDS011;56050;55.558;-4.644;2023-02-03T03:50:38;21.52;;;3.22;;
64851;SDS011;56050;55.558;-4.644;2023-02-03T03:53:08;15.57;;;4.50;;
64851;SDS011;56050;55.558;-4.644;2023-02-03T03:55:34;23.85;;;4.95;;
64851;SDS011;56050;55.558;-4.644;2023-02-03T03:58:05;30.23;;;5.35;;
64851;SDS011;56050;55.558;-4.644;2023-02-03T04:00:35;26.17;;;3.42;;
64851;SDS011;56050;55.558;-4.644;2023-02-03T04:03:10;22.45;;;3.78;;
64851;SDS011;56050;55.558;-4.644;2023-02-03T04:05:41;20.95;;;5.10;;
64851;SDS011;56050;55.558;-4.644;2023-02-03T04:08:06;22.83;;;3.20;;
64851;SDS011;56050;55.558;-4.644;2023-02-03T04:10:33;24.95;;;4.60;;
64851;SDS011;56050;55.558;-4.644;2023-02-03T04:13:01;16.15;;;3.35;;
64851;SDS011;56050;55.558;-4.644;2023-02-03T04:15:28;24.38;;;3.50;;
64851;SDS011;56050;55.558;-4.644;2023-02-03T04:17:54;27.98;;;4.00;;
64851;SDS011;56050;55.558;-4.644;2023-02-03T04:20:21;25.33;;;4.55;;
64851;SDS011;56050;55.558;-4.644;2023-02-03T04:22:47;25.50;;;3.17;;
64851;SDS011;56050;55.558;-4.644;2023-02-03T04:25:12;25.02;;;3.75;;
64851;SDS011;56050;55.558;-4.644;2023-02-03T04:27:38;26.58;;;3.88;;
64851;SDS011;56050;55.558;-4.644;2023-02-03T04:30:04;30.48;;;5.13;;
64851;SDS011;56050;55.558;-4.644;2023-02-03T04:32:30;17.52;;;2.83;;
64851;SDS011;56050;55.558;-4.644;2023-02-03T04:34:56;22.40;;;3.28;;
64851;SDS011;56050;55.558;-4.644;2023-02-03T04:37:22;24.15;;;3.92;;
64851;SDS011;56050;55.558;-4.644;2023-02-03T04:39:50;19.45;;;4.53;;
64851;SDS011;56050;55.558;-4.644;2023-02-03T04:42:17;22.83;;;4.40;;
64851;SDS011;56050;55.558;-4.644;2023-02-03T04:44:42;35.15;;;3.95;;
64851;SDS011;56050;55.558;-4.644;2023-02-03T04:47:08;30.27;;;5.35;;
64851;SDS011;56050;55.558;-4.644;2023-02-03T04:49:33;26.77;;;3.63;;
64851;SDS011;56050;55.558;-4.644;2023-02-03T04:51:59;18.25;;;3.20;;
64851;SDS011;56050;55.558;-4.644;2023-02-03T04:54:24;14.77;;;3.20;;
64851;SDS011;56050;55.558;-4.644;2023-02-03T04:56:50;21.15;;;3.17;;
64851;SDS011;56050;55.558;-4.644;2023-02-03T04:59:15;23.38;;;4.38;;
64851;SDS011;56050;55.558;-4.644;2023-02-03T05:01:41;23.35;;;4.43;;
64851;SDS011;56050;55.558;-4.644;2023-02-03T05:04:06;20.60;;;2.95;;
64851;SDS011;56050;55.558;-4.644;2023-02-03T05:06:32;15.27;;;3.15;;
64851;SDS011;56050;55.558;-4.644;2023-02-03T05:08:57;17.70;;;3.70;;
64851;SDS011;56050;55.558;-4.644;2023-02-03T05:11:23;24.60;;;4.13;;
64851;SDS011;56050;55.558;-4.644;2023-02-03T05:13:49;16.63;;;2.95;;
64851;SDS011;56050;55.558;-4.644;2023-02-03T05:16:14;13.27;;;2.85;;
64851;SDS011;56050;55.558;-4.644;2023-02-03T05:18:40;15.18;;;3.15;;
64851;SDS011;56050;55.558;-4.644;2023-02-03T05:21:06;19.15;;;4.85;;
64851;SDS011;56050;55.558;-4.644;2023-02-03T05:23:32;19.58;;;3.75;;
64851;SDS011;56050;55.558;-4.644;2023-02-03T05:25:57;21.48;;;3.10;;
64851;SDS011;56050;55.558;-4.644;2023-02-03T05:28:23;23.02;;;3.78;;
64851;SDS011;56050;55.558;-4.644;2023-02-03T05:30:48;27.15;;;3.10;;
64851;SDS011;56050;55.558;-4.644;2023-02-03T05:33:14;30.67;;;4.10;;
64851;SDS011;56050;55.558;-4.644;2023-02-03T05:35:39;20.88;;;2.63;;
64851;SDS011;56050;55.558;-4.644;2023-02-03T05:38:05;23.45;;;3.42;;
64851;SDS011;56050;55.558;-4.644;2023-02-03T05:40:30;19.85;;;3.78;;
64851;SDS011;56050;55.558;-4.644;2023-02-03T05:43:14;21.60;;;2.75;;
64851;SDS011;56050;55.558;-4.644;2023-02-03T05:45:40;22.80;;;2.72;;
64851;SDS011;56050;55.558;-4.644;2023-02-03T05:48:05;19.75;;;4.35;;
64851;SDS011;56050;55.558;-4.644;2023-02-03T05:50:31;15.45;;;2.22;;
64851;SDS011;56050;55.558;-4.644;2023-02-03T05:53:01;14.65;;;4.07;;
64851;SDS011;56050;55.558;-4.644;2023-02-03T05:55:28;19.02;;;3.53;;
64851;SDS011;56050;55.558;-4.644;2023-02-03T05:57:55;22.02;;;3.65;;
64851;SDS011;56050;55.558;-4.644;2023-02-03T06:00:21;19.42;;;2.70;;
64851;SDS011;56050;55.558;-4.644;2023-02-03T06:02:55;19.90;;;2.60;;
64851;SDS011;56050;55.558;-4.644;2023-02-03T06:05:22;19.05;;;3.33;;
64851;SDS011;56050;55.558;-4.644;2023-02-03T06:07:48;14.48;;;3.30;;
64851;SDS011;56050;55.558;-4.644;2023-02-03T06:10:14;24.67;;;3.22;;
64851;SDS011;56050;55.558;-4.644;2023-02-03T06:12:40;20.77;;;2.95;;
64851;SDS011;56050;55.558;-4.644;2023-02-03T06:15:06;14.88;;;2.60;;
64851;SDS011;56050;55.558;-4.644;2023-02-03T06:17:32;19.33;;;3.28;;
64851;SDS011;56050;55.558;-4.644;2023-02-03T06:19:58;21.13;;;4.28;;
64851;SDS011;56050;55.558;-4.644;2023-02-03T06:22:23;22.33;;;2.97;;
64851;SDS011;56050;55.558;-4.644;2023-02-03T06:24:49;21.02;;;2.83;;
64851;SDS011;56050;55.558;-4.644;2023-02-03T06:27:14;23.73;;;3.92;;
64851;SDS011;56050;55.558;-4.644;2023-02-03T06:29:40;21.88;;;2.40;;
64851;SDS011;56050;55.558;-4.644;2023-02-03T06:32:06;21.80;;;3.28;;
64851;SDS011;56050;55.558;-4.644;2023-02-03T06:34:32;19.40;;;2.92;;
64851;SDS011;56050;55.558;-4.644;2023-02-03T06:36:58;19.17;;;3.28;;
64851;SDS011;56050;55.558;-4.644;2023-02-03T06:39:23;26.70;;;2.75;;
64851;SDS011;56050;55.558;-4.644;2023-02-03T06:41:49;17.00;;;2.03;;
64851;SDS011;56050;55.558;-4.644;2023-02-03T06:44:15;23.00;;;4.20;;
64851;SDS011;56050;55.558;-4.644;2023-02-03T06:46:42;14.13;;;2.20;;
64851;SDS011;56050;55.558;-4.644;2023-02-03T06:49:07;26.67;;;4.10;;
64851;SDS011;56050;55.558;-4.644;2023-02-03T06:51:33;23.15;;;5.15;;
64851;SDS011;56050;55.558;-4.644;2023-02-03T06:53:58;16.50;;;3.58;;
64851;SDS011;56050;55.558;-4.644;2023-02-03T06:56:24;14.18;;;4.25;;
64851;SDS011;56050;55.558;-4.644;2023-02-03T06:58:50;20.00;;;2.70;;
64851;SDS011;56050;55.558;-4.644;2023-02-03T07:01:15;20.10;;;2.50;;
64851;SDS011;56050;55.558;-4.644;2023-02-03T07:03:40;21.08;;;3.10;;
64851;SDS011;56050;55.558;-4.644;2023-02-03T07:06:06;21.25;;;2.88;;
64851;SDS011;56050;55.558;-4.644;2023-02-03T07:08:32;18.48;;;3.88;;
64851;SDS011;56050;55.558;-4.644;2023-02-03T07:10:57;20.73;;;2.28;;
64851;SDS011;56050;55.558;-4.644;2023-02-03T07:13:23;21.08;;;3.30;;
64851;SDS011;56050;55.558;-4.644;2023-02-03T07:15:48;19.23;;;3.38;;
64851;SDS011;56050;55.558;-4.644;2023-02-03T07:18:14;22.70;;;2.85;;
64851;SDS011;56050;55.558;-4.644;2023-02-03T07:20:40;26.60;;;4.18;;
64851;SDS011;56050;55.558;-4.644;2023-02-03T07:23:05;24.55;;;3.50;;
64851;SDS011;56050;55.558;-4.644;2023-02-03T07:25:31;20.20;;;3.40;;
64851;SDS011;56050;55.558;-4.644;2023-02-03T07:27:56;17.98;;;3.00;;
64851;SDS011;56050;55.558;-4.644;2023-02-03T07:30:22;18.70;;;2.83;;
64851;SDS011;56050;55.558;-4.644;2023-02-03T07:32:48;21.35;;;3.00;;
64851;SDS011;56050;55.558;-4.644;2023-02-03T07:35:14;29.80;;;3.53;;
64851;SDS011;56050;55.558;-4.644;2023-02-03T07:37:40;20.38;;;2.90;;
64851;SDS011;56050;55.558;-4.644;2023-02-03T07:40:07;12.77;;;2.33;;
64851;SDS011;56050;55.558;-4.644;2023-02-03T07:42:33;20.23;;;2.88;;
64851;SDS011;56050;55.558;-4.644;2023-02-03T07:44:58;16.27;;;3.70;;
64851;SDS011;56050;55.558;-4.644;2023-02-03T07:47:24;13.23;;;2.35;;
64851;SDS011;56050;55.558;-4.644;2023-02-03T07:49:49;21.75;;;3.17;;
64851;SDS011;56050;55.558;-4.644;2023-02-03T07:52:15;18.95;;;4.30;;
64851;SDS011;56050;55.558;-4.644;2023-02-03T07:54:40;16.52;;;2.70;;
64851;SDS011;56050;55.558;-4.644;2023-02-03T07:57:06;19.60;;;2.83;;
64851;SDS011;56050;55.558;-4.644;2023-02-03T07:59:31;14.73;;;3.42;;
64851;SDS011;56050;55.558;-4.644;2023-02-03T08:01:57;15.30;;;3.03;;
64851;SDS011;56050;55.558;-4.644;2023-02-03T08:04:23;18.70;;;5.03;;
64851;SDS011;56050;55.558;-4.644;2023-02-03T08:06:49;20.60;;;3.08;;
64851;SDS011;56050;55.558;-4.644;2023-02-03T08:09:15;17.85;;;3.20;;
64851;SDS011;56050;55.558;-4.644;2023-02-03T08:11:40;19.50;;;3.95;;
64851;SDS011;56050;55.558;-4.644;2023-02-03T08:14:05;16.13;;;2.50;;
64851;SDS011;56050;55.558;-4.644;2023-02-03T08:16:31;16.73;;;2.72;;
64851;SDS011;56050;55.558;-4.644;2023-02-03T08:18:56;16.80;;;3.10;;
64851;SDS011;56050;55.558;-4.644;2023-02-03T08:21:22;14.90;;;2.30;;
64851;SDS011;56050;55.558;-4.644;2023-02-03T08:23:47;21.90;;;3.78;;
64851;SDS011;56050;55.558;-4.644;2023-02-03T08:26:13;22.40;;;3.20;;
64851;SDS011;56050;55.558;-4.644;2023-02-03T08:28:38;31.02;;;4.13;;
64851;SDS011;56050;55.558;-4.644;2023-02-03T08:31:10;25.40;;;3.13;;
64851;SDS011;56050;55.558;-4.644;2023-02-03T08:36:01;20.52;;;4.45;;
64851;SDS011;56050;55.558;-4.644;2023-02-03T08:38:27;21.40;;;5.10;;
64851;SDS011;56050;55.558;-4.644;2023-02-03T08:40:52;16.90;;;4.18;;
64851;SDS011;56050;55.558;-4.644;2023-02-03T08:43:18;18.15;;;3.67;;
64851;SDS011;56050;55.558;-4.644;2023-02-03T08:45:45;21.98;;;2.47;;
64851;SDS011;56050;55.558;-4.644;2023-02-03T08:48:10;27.85;;;2.83;;
64851;SDS011;56050;55.558;-4.644;2023-02-03T08:50:36;19.13;;;3.15;;
64851;SDS011;56050;55.558;-4.644;2023-02-03T08:53:01;23.77;;;3.33;;
64851;SDS011;56050;55.558;-4.644;2023-02-03T08:55:27;20.98;;;4.00;;
64851;SDS011;56050;55.558;-4.644;2023-02-03T08:57:52;28.65;;;5.43;;
64851;SDS011;56050;55.558;-4.644;2023-02-03T09:00:18;26.70;;;5.15;;
64851;SDS011;56050;55.558;-4.644;2023-02-03T09:02:44;16.90;;;3.40;;
64851;SDS011;56050;55.558;-4.644;2023-02-03T09:05:09;27.35;;;5.03;;
64851;SDS011;56050;55.558;-4.644;2023-02-03T09:07:35;28.88;;;4.43;;
64851;SDS011;56050;55.558;-4.644;2023-02-03T09:10:00;22.45;;;3.05;;
64851;SDS011;56050;55.558;-4.644;2023-02-03T09:12:26;30.20;;;4.47;;
64851;SDS011;56050;55.558;-4.644;2023-02-03T09:14:51;15.93;;;4.00;;
64851;SDS011;56050;55.558;-4.644;2023-02-03T09:17:16;19.92;;;3.25;;
64851;SDS011;56050;55.558;-4.644;2023-02-03T09:19:42;22.30;;;3.17;;
64851;SDS011;56050;55.558;-4.644;2023-02-03T09:22:07;26.02;;;4.03;;
64851;SDS011;56050;55.558;-4.644;2023-02-03T09:24:33;17.75;;;3.13;;
64851;SDS011;56050;55.558;-4.644;2023-02-03T09:26:58;18.20;;;3.78;;
64851;SDS011;56050;55.558;-4.644;2023-02-03T09:29:25;15.90;;;2.35;;
64851;SDS011;56050;55.558;-4.644;2023-02-03T09:31:51;15.82;;;2.33;;
64851;SDS011;56050;55.558;-4.644;2023-02-03T09:34:17;21.55;;;2.70;;
64851;SDS011;56050;55.558;-4.644;2023-02-03T09:36:44;16.23;;;5.38;;
64851;SDS011;56050;55.558;-4.644;2023-02-03T09:39:09;18.17;;;2.47;;
64851;SDS011;56050;55.558;-4.644;2023-02-03T09:44:34;21.40;;;3.25;;
64851;SDS011;56050;55.558;-4.644;2023-02-03T09:47:15;15.45;;;2.67;;
64851;SDS011;56050;55.558;-4.644;2023-02-03T09:49:55;19.48;;;2.72;;
64851;SDS011;56050;55.558;-4.644;2023-02-03T09:52:28;16.15;;;3.45;;
64851;SDS011;56050;55.558;-4.644;2023-02-03T09:55:02;15.13;;;2.63;;
64851;SDS011;56050;55.558;-4.644;2023-02-03T09:57:34;21.55;;;3.17;;
64851;SDS011;56050;55.558;-4.644;2023-02-03T10:00:18;15.30;;;2.85;;
64851;SDS011;56050;55.558;-4.644;2023-02-03T10:02:50;14.25;;;2.10;;
64851;SDS011;56050;55.558;-4.644;2023-02-03T10:20:13;7.65;;;2.05;;
64851;SDS011;56050;55.558;-4.644;2023-02-03T10:22:49;11.93;;;1.15;;
64851;SDS011;56050;55.558;-4.644;2023-02-03T10:25:19;4.70;;;1.55;;
64851;SDS011;56050;55.558;-4.644;2023-02-03T10:28:12;6.57;;;1.70;;
64851;SDS011;56050;55.558;-4.644;2023-02-03T10:30:43;4.57;;;1.48;;
64851;SDS011;56050;55.558;-4.644;2023-02-03T10:33:21;9.98;;;1.27;;
64851;SDS011;56050;55.558;-4.644;2023-02-03T10:35:53;4.60;;;0.82;;
64851;SDS011;56050;55.558;-4.644;2023-02-03T10:40:48;6.10;;;1.42;;
64851;SDS011;56050;55.558;-4.644;2023-02-03T10:43:14;6.40;;;0.88;;
64851;SDS011;56050;55.558;-4.644;2023-02-03T10:45:58;5.18;;;0.80;;
64851;SDS011;56050;55.558;-4.644;2023-02-03T10:48:24;6.13;;;1.20;;
64851;SDS011;56050;55.558;-4.644;2023-02-03T10:50:49;4.53;;;2.40;;
64851;SDS011;56050;55.558;-4.644;2023-02-03T10:58:31;2.85;;;1.08;;
64851;SDS011;56050;55.558;-4.644;2023-02-03T11:01:11;6.30;;;1.33;;
64851;SDS011;56050;55.558;-4.644;2023-02-03T11:03:59;2.42;;;1.05;;
64851;SDS011;56050;55.558;-4.644;2023-02-03T11:06:27;3.40;;;1.58;;
64851;SDS011;56050;55.558;-4.644;2023-02-03T11:08:52;3.55;;;0.70;;
64851;SDS011;56050;55.558;-4.644;2023-02-03T11:14:14;2.15;;;0.73;;
64851;SDS011;56050;55.558;-4.644;2023-02-03T11:16:41;2.55;;;0.85;;
64851;SDS011;56050;55.558;-4.644;2023-02-03T11:27:17;2.90;;;0.68;;
64851;SDS011;56050;55.558;-4.644;2023-02-03T11:29:47;3.20;;;1.02;;
64851;SDS011;56050;55.558;-4.644;2023-02-03T11:35:15;5.03;;;1.08;;
64851;SDS011;56050;55.558;-4.644;2023-02-03T11:37:44;3.17;;;0.75;;
64851;SDS011;56050;55.558;-4.644;2023-02-03T11:42:42;4.93;;;1.67;;
64851;SDS011;56050;55.558;-4.644;2023-02-03T11:45:26;7.10;;;1.85;;
64851;SDS011;56050;55.558;-4.644;2023-02-03T11:47:58;6.13;;;0.85;;
64851;SDS011;56050;55.558;-4.644;2023-02-03T11:50:50;4.05;;;1.30;;
64851;SDS011;56050;55.558;-4.644;2023-02-03T12:05:19;4.40;;;0.90;;
64851;SDS011;56050;55.558;-4.644;2023-02-03T12:10:28;5.72;;;1.25;;
64851;SDS011;56050;55.558;-4.644;2023-02-03T12:15:45;5.97;;;1.20;;
64851;SDS011;56050;55.558;-4.644;2023-02-03T12:24:18;2.38;;;1.05;;
64851;SDS011;56050;55.558;-4.644;2023-02-03T12:29:53;2.58;;;0.85;;
64851;SDS011;56050;55.558;-4.644;2023-02-03T12:40:35;2.65;;;1.00;;
64851;SDS011;56050;55.558;-4.644;2023-02-03T12:45:55;3.03;;;0.55;;
64851;SDS011;56050;55.558;-4.644;2023-02-03T12:48:26;2.63;;;0.50;;
64851;SDS011;56050;55.558;-4.644;2023-02-03T12:51:01;2.13;;;0.63;;
64851;SDS011;56050;55.558;-4.644;2023-02-03T12:53:31;5.47;;;0.63;;
64851;SDS011;56050;55.558;-4.644;2023-02-03T12:56:07;2.55;;;0.93;;
64851;SDS011;56050;55.558;-4.644;2023-02-03T12:58:54;8.38;;;0.90;;
64851;SDS011;56050;55.558;-4.644;2023-02-03T13:01:27;3.72;;;0.95;;
64851;SDS011;56050;55.558;-4.644;2023-02-03T13:09:30;5.57;;;1.45;;
64851;SDS011;56050;55.558;-4.644;2023-02-03T13:14:44;5.45;;;2.03;;
64851;SDS011;56050;55.558;-4.644;2023-02-03T13:19:59;5.05;;;1.38;;
64851;SDS011;56050;55.558;-4.644;2023-02-03T13:22:28;6.07;;;1.10;;
64851;SDS011;56050;55.558;-4.644;2023-02-03T13:25:08;6.93;;;0.95;;
64851;SDS011;56050;55.558;-4.644;2023-02-03T13:28:22;8.23;;;1.08;;
64851;SDS011;56050;55.558;-4.644;2023-02-03T13:36:26;6.03;;;0.75;;
64851;SDS011;56050;55.558;-4.644;2023-02-03T13:41:35;4.57;;;0.95;;
64851;SDS011;56050;55.558;-4.644;2023-02-03T13:44:10;6.53;;;0.88;;
64851;SDS011;56050;55.558;-4.644;2023-02-03T13:46:38;5.35;;;0.73;;
64851;SDS011;56050;55.558;-4.644;2023-02-03T13:49:04;15.75;;;1.65;;
64851;SDS011;56050;55.558;-4.644;2023-02-03T13:51:32;5.95;;;0.70;;
64851;SDS011;56050;55.558;-4.644;2023-02-03T13:54:36;5.20;;;1.00;;
64851;SDS011;56050;55.558;-4.644;2023-02-03T13:57:28;4.57;;;1.27;;
64851;SDS011;56050;55.558;-4.644;2023-02-03T13:59:58;3.33;;;0.60;;
64851;SDS011;56050;55.558;-4.644;2023-02-03T14:04:52;7.13;;;1.42;;
64851;SDS011;56050;55.558;-4.644;2023-02-03T14:07:35;3.28;;;0.60;;
64851;SDS011;56050;55.558;-4.644;2023-02-03T14:17:53;7.15;;;0.73;;
64851;SDS011;56050;55.558;-4.644;2023-02-03T14:25:31;7.07;;;0.90;;
64851;SDS011;56050;55.558;-4.644;2023-02-03T14:28:04;6.95;;;1.02;;
64851;SDS011;56050;55.558;-4.644;2023-02-03T14:30:32;7.05;;;0.77;;
64851;SDS011;56050;55.558;-4.644;2023-02-03T14:33:43;5.00;;;1.15;;
64851;SDS011;56050;55.558;-4.644;2023-02-03T14:39:03;9.15;;;1.33;;
64851;SDS011;56050;55.558;-4.644;2023-02-03T14:41:53;6.47;;;1.45;;
64851;SDS011;56050;55.558;-4.644;2023-02-03T14:47:54;4.70;;;1.77;;
64851;SDS011;56050;55.558;-4.644;2023-02-03T14:58:29;6.82;;;1.05;;
64851;SDS011;56050;55.558;-4.644;2023-02-03T15:01:03;4.30;;;0.75;;
64851;SDS011;56050;55.558;-4.644;2023-02-03T15:03:31;3.78;;;2.67;;
64851;SDS011;56050;55.558;-4.644;2023-02-03T15:05:58;9.60;;;0.75;;
64851;SDS011;56050;55.558;-4.644;2023-02-03T15:11:14;4.82;;;0.68;;
64851;SDS011;56050;55.558;-4.644;2023-02-03T15:13:52;4.32;;;1.33;;
64851;SDS011;56050;55.558;-4.644;2023-02-03T15:16:20;6.95;;;1.20;;
64851;SDS011;56050;55.558;-4.644;2023-02-03T15:18:59;7.32;;;1.00;;
64851;SDS011;56050;55.558;-4.644;2023-02-03T15:21:31;8.20;;;1.15;;
64851;SDS011;56050;55.558;-4.644;2023-02-03T15:23:56;5.28;;;1.05;;
64851;SDS011;56050;55.558;-4.644;2023-02-03T15:26:23;6.55;;;1.38;;
64851;SDS011;56050;55.558;-4.644;2023-02-03T15:28:57;5.43;;;0.88;;
64851;SDS011;56050;55.558;-4.644;2023-02-03T15:31:32;4.63;;;0.82;;
64851;SDS011;56050;55.558;-4.644;2023-02-03T15:34:08;7.45;;;2.20;;
64851;SDS011;56050;55.558;-4.644;2023-02-03T15:36:44;9.98;;;1.75;;
64851;SDS011;56050;55.558;-4.644;2023-02-03T15:39:17;7.25;;;1.10;;
64851;SDS011;56050;55.558;-4.644;2023-02-03T15:41:55;3.35;;;1.15;;
64851;SDS011;56050;55.558;-4.644;2023-02-03T15:46:53;7.35;;;0.95;;
64851;SDS011;56050;55.558;-4.644;2023-02-03T15:49:22;11.60;;;1.52;;
64851;SDS011;56050;55.558;-4.644;2023-02-03T15:54:42;4.10;;;1.25;;
64851;SDS011;56050;55.558;-4.644;2023-02-03T15:57:19;5.40;;;1.00;;
64851;SDS011;56050;55.558;-4.644;2023-02-03T15:59:51;7.38;;;1.45;;
64851;SDS011;56050;55.558;-4.644;2023-02-03T16:02:20;4.80;;;1.27;;
64851;SDS011;56050;55.558;-4.644;2023-02-03T16:07:21;10.10;;;1.00;;
64851;SDS011;56050;55.558;-4.644;2023-02-03T16:09:52;4.93;;;1.65;;
64851;SDS011;56050;55.558;-4.644;2023-02-03T16:12:27;6.50;;;0.63;;
64851;SDS011;56050;55.558;-4.644;2023-02-03T16:14:53;4.97;;;1.15;;
64851;SDS011;56050;55.558;-4.644;2023-02-03T16:17:30;6.43;;;1.00;;
64851;SDS011;56050;55.558;-4.644;2023-02-03T16:22:36;5.00;;;0.60;;
64851;SDS011;56050;55.558;-4.644;2023-02-03T16:25:13;10.45;;;2.55;;
64851;SDS011;56050;55.558;-4.644;2023-02-03T16:27:42;6.10;;;1.08;;
64851;SDS011;56050;55.558;-4.644;2023-02-03T16:35:55;1.98;;;0.60;;
64851;SDS011;56050;55.558;-4.644;2023-02-03T16:41:33;6.80;;;0.95;;
64851;SDS011;56050;55.558;-4.644;2023-02-03T16:44:19;6.43;;;1.20;;
64851;SDS011;56050;55.558;-4.644;2023-02-03T16:47:03;3.13;;;0.75;;
64851;SDS011;56050;55.558;-4.644;2023-02-03T16:49:58;4.90;;;1.48;;
64851;SDS011;56050;55.558;-4.644;2023-02-03T16:52:42;4.82;;;1.38;;
64851;SDS011;56050;55.558;-4.644;2023-02-03T16:55:08;6.90;;;1.10;;
64851;SDS011;56050;55.558;-4.644;2023-02-03T16:57:35;9.20;;;1.27;;
64851;SDS011;56050;55.558;-4.644;2023-02-03T17:00:00;2.28;;;0.85;;
64851;SDS011;56050;55.558;-4.644;2023-02-03T17:02:26;5.05;;;0.95;;
64851;SDS011;56050;55.558;-4.644;2023-02-03T17:04:52;5.93;;;1.10;;
64851;SDS011;56050;55.558;-4.644;2023-02-03T17:07:17;7.18;;;1.08;;
64851;SDS011;56050;55.558;-4.644;2023-02-03T17:09:42;6.38;;;1.08;;
64851;SDS011;56050;55.558;-4.644;2023-02-03T17:12:08;4.22;;;0.52;;
64851;SDS011;56050;55.558;-4.644;2023-02-03T17:14:33;8.35;;;1.25;;
64851;SDS011;56050;55.558;-4.644;2023-02-03T17:16:59;3.92;;;0.63;;
64851;SDS011;56050;55.558;-4.644;2023-02-03T17:19:24;6.75;;;1.17;;
64851;SDS011;56050;55.558;-4.644;2023-02-03T17:21:50;4.57;;;1.00;;
64851;SDS011;56050;55.558;-4.644;2023-02-03T17:24:16;2.97;;;0.65;;
64851;SDS011;56050;55.558;-4.644;2023-02-03T17:26:41;6.63;;;1.48;;
64851;SDS011;56050;55.558;-4.644;2023-02-03T17:29:09;7.90;;;0.98;;
64851;SDS011;56050;55.558;-4.644;2023-02-03T17:31:35;4.55;;;0.73;;
64851;SDS011;56050;55.558;-4.644;2023-02-03T17:34:00;6.00;;;0.63;;
64851;SDS011;56050;55.558;-4.644;2023-02-03T17:36:26;4.07;;;1.17;;
64851;SDS011;56050;55.558;-4.644;2023-02-03T17:38:53;8.70;;;0.63;;
64851;SDS011;56050;55.558;-4.644;2023-02-03T17:41:21;3.47;;;1.17;;